sensor_id;sensor_type;location;lat;lon;timestamp;pressure;altitude;pressure_sealevel;temperature;humidity
829;BME280;396;52.558;13.188;2023-06-22T00:02:17;101407.41;;;19.71;100.00
829;BME280;396;52.558;13.188;2023-06-22T00:04:44;101408.09;;;19.68;100.00
829;BME280;396;52.558;13.188;2023-06-22T00:07:11;101398.25;;;19.67;100.00
829;BME280;396;52.558;13.188;2023-06-22T00:09:37;101407.84;;;19.61;100.00
829;BME280;396;52.558;13.188;2023-06-22T00:12:05;101409.91;;;19.64;100.00
829;BME280;396;52.558;13.188;2023-06-22T00:14:32;101413.47;;;19.64;100.00
829;BME280;396;52.558;13.188;2023-06-22T00:16:58;101425.97;;;19.62;100.00
829;BME280;396;52.558;13.188;2023-06-22T00:19:26;101429.81;;;19.61;100.00
829;BME280;396;52.558;13.188;2023-06-22T00:21:53;101430.66;;;19.61;100.00
829;BME280;396;52.558;13.188;2023-06-22T00:24:20;101427.28;;;19.56;100.00
829;BME280;396;52.558;13.188;2023-06-22T00:26:48;101431.97;;;19.55;100.00
829;BME280;396;52.558;13.188;2023-06-22T00:29:14;101430.50;;;19.58;100.00
829;BME280;396;52.558;13.188;2023-06-22T00:31:42;101434.94;;;19.50;100.00
829;BME280;396;52.558;13.188;2023-06-22T00:34:08;101434.81;;;19.47;100.00
829;BME280;396;52.558;13.188;2023-06-22T00:36:36;101430.91;;;19.48;100.00
829;BME280;396;52.558;13.188;2023-06-22T00:39:06;101430.91;;;19.48;100.00
829;BME280;396;52.558;13.188;2023-06-22T00:41:32;101428.66;;;19.50;100.00
829;BME280;396;52.558;13.188;2023-06-22T00:43:59;101431.63;;;19.45;100.00
829;BME280;396;52.558;13.188;2023-06-22T00:46:26;101435.53;;;19.44;100.00
829;BME280;396;52.558;13.188;2023-06-22T00:48:52;101434.31;;;19.32;100.00
829;BME280;396;52.558;13.188;2023-06-22T00:51:22;101430.19;;;19.26;100.00
829;BME280;396;52.558;13.188;2023-06-22T00:53:51;101434.91;;;19.26;100.00
829;BME280;396;52.558;13.188;2023-06-22T00:56:18;101435.22;;;19.24;100.00
829;BME280;396;52.558;13.188;2023-06-22T00:58:50;101438.44;;;19.26;100.00
829;BME280;396;52.558;13.188;2023-06-22T01:01:19;101435.69;;;19.26;100.00
829;BME280;396;52.558;13.188;2023-06-22T01:03:49;101442.66;;;19.24;100.00
829;BME280;396;52.558;13.188;2023-06-22T01:06:21;101445.63;;;19.19;100.00
829;BME280;396;52.558;13.188;2023-06-22T01:09:00;101443.41;;;19.12;100.00
829;BME280;396;52.558;13.188;2023-06-22T01:11:32;101441.22;;;19.05;100.00
829;BME280;396;52.558;13.188;2023-06-22T01:14:07;101450.72;;;19.08;100.00
829;BME280;396;52.558;13.188;2023-06-22T01:16:41;101434.34;;;18.99;100.00
829;BME280;396;52.558;13.188;2023-06-22T01:19:20;101432.13;;;18.93;100.00
829;BME280;396;52.558;13.188;2023-06-22T01:21:52;101431.06;;;18.85;100.00
829;BME280;396;52.558;13.188;2023-06-22T01:24:24;101433.34;;;18.83;100.00
829;BME280;396;52.558;13.188;2023-06-22T01:26:57;101438.28;;;18.89;100.00
829;BME280;396;52.558;13.188;2023-06-22T01:29:29;101434.44;;;18.90;100.00
829;BME280;396;52.558;13.188;2023-06-22T01:31:57;101435.75;;;18.84;100.00
829;BME280;396;52.558;13.188;2023-06-22T01:34:24;101437.91;;;18.79;100.00
829;BME280;396;52.558;13.188;2023-06-22T01:36:51;101445.78;;;18.80;100.00
829;BME280;396;52.558;13.188;2023-06-22T01:39:19;101451.16;;;18.77;100.00
829;BME280;396;52.558;13.188;2023-06-22T01:41:47;101445.41;;;18.70;100.00
829;BME280;396;52.558;13.188;2023-06-22T01:44:15;101451.69;;;18.70;100.00
829;BME280;396;52.558;13.188;2023-06-22T01:46:44;101454.13;;;18.63;100.00
829;BME280;396;52.558;13.188;2023-06-22T01:49:11;101455.06;;;18.67;100.00
829;BME280;396;52.558;13.188;2023-06-22T01:51:38;101448.19;;;18.61;100.00
829;BME280;396;52.558;13.188;2023-06-22T01:54:06;101451.94;;;18.56;100.00
829;BME280;396;52.558;13.188;2023-06-22T01:56:33;101459.56;;;18.51;100.00
829;BME280;396;52.558;13.188;2023-06-22T01:59:04;101458.09;;;18.53;100.00
829;BME280;396;52.558;13.188;2023-06-22T02:01:41;101453.69;;;18.61;100.00
829;BME280;396;52.558;13.188;2023-06-22T02:04:13;101448.53;;;18.59;100.00
829;BME280;396;52.558;13.188;2023-06-22T02:06:42;101450.34;;;18.55;100.00
829;BME280;396;52.558;13.188;2023-06-22T02:09:15;101451.34;;;18.51;100.00
829;BME280;396;52.558;13.188;2023-06-22T02:11:44;101462.78;;;18.53;100.00
829;BME280;396;52.558;13.188;2023-06-22T02:14:12;101461.16;;;18.52;100.00
829;BME280;396;52.558;13.188;2023-06-22T02:16:40;101456.81;;;18.51;100.00
829;BME280;396;52.558;13.188;2023-06-22T02:19:09;101466.47;;;18.57;100.00
829;BME280;396;52.558;13.188;2023-06-22T02:21:36;101464.38;;;18.54;100.00
829;BME280;396;52.558;13.188;2023-06-22T02:24:03;101462.97;;;18.48;100.00
829;BME280;396;52.558;13.188;2023-06-22T02:26:31;101471.06;;;18.44;100.00
829;BME280;396;52.558;13.188;2023-06-22T02:28:59;101474.94;;;18.43;100.00
829;BME280;396;52.558;13.188;2023-06-22T02:31:26;101469.84;;;18.54;100.00
829;BME280;396;52.558;13.188;2023-06-22T02:33:55;101479.03;;;18.58;100.00
829;BME280;396;52.558;13.188;2023-06-22T02:36:24;101463.50;;;18.62;100.00
829;BME280;396;52.558;13.188;2023-06-22T02:38:52;101470.94;;;18.61;100.00
829;BME280;396;52.558;13.188;2023-06-22T02:41:19;101471.53;;;18.67;100.00
829;BME280;396;52.558;13.188;2023-06-22T02:43:47;101469.59;;;18.67;100.00
829;BME280;396;52.558;13.188;2023-06-22T02:46:13;101475.25;;;18.71;100.00
829;BME280;396;52.558;13.188;2023-06-22T02:48:40;101478.94;;;18.75;100.00
829;BME280;396;52.558;13.188;2023-06-22T02:51:07;101469.00;;;18.62;100.00
829;BME280;396;52.558;13.188;2023-06-22T02:53:35;101465.91;;;18.63;100.00
829;BME280;396;52.558;13.188;2023-06-22T02:56:02;101470.72;;;18.75;100.00
829;BME280;396;52.558;13.188;2023-06-22T02:58:31;101479.44;;;18.77;100.00
829;BME280;396;52.558;13.188;2023-06-22T03:01:04;101473.78;;;18.74;100.00
829;BME280;396;52.558;13.188;2023-06-22T03:03:30;101472.66;;;18.75;100.00
829;BME280;396;52.558;13.188;2023-06-22T03:05:57;101473.44;;;18.75;100.00
829;BME280;396;52.558;13.188;2023-06-22T03:08:26;101476.94;;;18.84;100.00
829;BME280;396;52.558;13.188;2023-06-22T03:10:54;101468.84;;;18.88;100.00
829;BME280;396;52.558;13.188;2023-06-22T03:13:21;101467.69;;;18.89;100.00
829;BME280;396;52.558;13.188;2023-06-22T03:15:47;101461.88;;;18.90;100.00
829;BME280;396;52.558;13.188;2023-06-22T03:18:14;101467.03;;;18.92;100.00
829;BME280;396;52.558;13.188;2023-06-22T03:20:41;101463.13;;;18.93;100.00
829;BME280;396;52.558;13.188;2023-06-22T03:23:07;101468.28;;;18.95;100.00
829;BME280;396;52.558;13.188;2023-06-22T03:25:35;101470.72;;;18.96;100.00
829;BME280;396;52.558;13.188;2023-06-22T03:28:03;101469.91;;;18.96;100.00
829;BME280;396;52.558;13.188;2023-06-22T03:30:30;101467.75;;;19.01;100.00
829;BME280;396;52.558;13.188;2023-06-22T03:32:56;101476.13;;;19.05;100.00
829;BME280;396;52.558;13.188;2023-06-22T03:35:23;101474.63;;;19.07;100.00
829;BME280;396;52.558;13.188;2023-06-22T03:37:49;101474.78;;;19.11;100.00
829;BME280;396;52.558;13.188;2023-06-22T03:40:16;101473.75;;;19.15;100.00
829;BME280;396;52.558;13.188;2023-06-22T03:42:43;101470.78;;;19.21;100.00
829;BME280;396;52.558;13.188;2023-06-22T03:45:11;101464.19;;;19.22;100.00
829;BME280;396;52.558;13.188;2023-06-22T03:47:37;101469.34;;;19.23;100.00
829;BME280;396;52.558;13.188;2023-06-22T03:50:05;101462.69;;;19.24;100.00
829;BME280;396;52.558;13.188;2023-06-22T03:52:32;101465.56;;;19.28;100.00
829;BME280;396;52.558;13.188;2023-06-22T03:54:58;101475.53;;;19.32;100.00
829;BME280;396;52.558;13.188;2023-06-22T03:57:25;101454.84;;;19.35;100.00
829;BME280;396;52.558;13.188;2023-06-22T03:59:52;101475.00;;;19.39;100.00
829;BME280;396;52.558;13.188;2023-06-22T04:02:19;101465.25;;;19.41;100.00
829;BME280;396;52.558;13.188;2023-06-22T04:04:46;101466.19;;;19.46;100.00
829;BME280;396;52.558;13.188;2023-06-22T04:07:13;101474.88;;;19.48;100.00
829;BME280;396;52.558;13.188;2023-06-22T04:09:39;101482.16;;;19.52;100.00
829;BME280;396;52.558;13.188;2023-06-22T04:12:07;101479.50;;;19.56;100.00
829;BME280;396;52.558;13.188;2023-06-22T04:14:33;101484.31;;;19.59;100.00
829;BME280;396;52.558;13.188;2023-06-22T04:17:01;101478.63;;;19.64;100.00
829;BME280;396;52.558;13.188;2023-06-22T04:19:29;101484.59;;;19.66;100.00
829;BME280;396;52.558;13.188;2023-06-22T04:21:56;101480.03;;;19.70;100.00
829;BME280;396;52.558;13.188;2023-06-22T04:24:22;101482.09;;;19.73;100.00
829;BME280;396;52.558;13.188;2023-06-22T04:26:49;101486.22;;;19.79;100.00
829;BME280;396;52.558;13.188;2023-06-22T04:29:20;101489.91;;;19.83;100.00
829;BME280;396;52.558;13.188;2023-06-22T04:31:46;101491.28;;;19.89;100.00
829;BME280;396;52.558;13.188;2023-06-22T04:34:16;101493.34;;;19.93;100.00
829;BME280;396;52.558;13.188;2023-06-22T04:36:44;101504.13;;;19.98;100.00
829;BME280;396;52.558;13.188;2023-06-22T04:39:11;101503.53;;;20.04;100.00
829;BME280;396;52.558;13.188;2023-06-22T04:41:39;101499.75;;;20.09;100.00
829;BME280;396;52.558;13.188;2023-06-22T04:44:09;101511.00;;;20.16;100.00
829;BME280;396;52.558;13.188;2023-06-22T04:46:36;101509.63;;;20.22;100.00
829;BME280;396;52.558;13.188;2023-06-22T04:49:04;101507.22;;;20.33;100.00
829;BME280;396;52.558;13.188;2023-06-22T04:51:37;101510.66;;;20.42;100.00
829;BME280;396;52.558;13.188;2023-06-22T04:54:05;101517.69;;;20.52;100.00
829;BME280;396;52.558;13.188;2023-06-22T04:56:32;101506.31;;;20.65;100.00
829;BME280;396;52.558;13.188;2023-06-22T04:58:58;101517.41;;;20.81;100.00
829;BME280;396;52.558;13.188;2023-06-22T05:01:25;101510.25;;;20.92;100.00
829;BME280;396;52.558;13.188;2023-06-22T05:03:52;101510.59;;;21.03;100.00
829;BME280;396;52.558;13.188;2023-06-22T05:06:21;101511.56;;;21.11;100.00
829;BME280;396;52.558;13.188;2023-06-22T05:08:50;101505.91;;;21.20;100.00
829;BME280;396;52.558;13.188;2023-06-22T05:11:18;101511.28;;;21.28;100.00
829;BME280;396;52.558;13.188;2023-06-22T05:13:45;101503.59;;;21.34;98.67
829;BME280;396;52.558;13.188;2023-06-22T05:16:12;101514.91;;;21.45;96.91
829;BME280;396;52.558;13.188;2023-06-22T05:18:38;101516.72;;;21.53;95.92
829;BME280;396;52.558;13.188;2023-06-22T05:21:05;101522.88;;;21.62;94.93
829;BME280;396;52.558;13.188;2023-06-22T05:23:31;101518.69;;;21.68;94.53
829;BME280;396;52.558;13.188;2023-06-22T05:25:58;101519.69;;;21.76;94.19
829;BME280;396;52.558;13.188;2023-06-22T05:28:26;101521.47;;;21.84;93.94
829;BME280;396;52.558;13.188;2023-06-22T05:30:53;101509.00;;;21.90;93.70
829;BME280;396;52.558;13.188;2023-06-22T05:33:19;101510.00;;;21.98;94.03
829;BME280;396;52.558;13.188;2023-06-22T05:35:46;101510.19;;;22.05;93.69
829;BME280;396;52.558;13.188;2023-06-22T05:38:13;101509.44;;;22.08;93.12
829;BME280;396;52.558;13.188;2023-06-22T05:40:40;101514.25;;;22.11;92.42
829;BME280;396;52.558;13.188;2023-06-22T05:43:07;101522.31;;;22.16;91.96
829;BME280;396;52.558;13.188;2023-06-22T05:45:34;101535.03;;;22.21;91.58
829;BME280;396;52.558;13.188;2023-06-22T05:48:01;101530.03;;;22.26;91.15
829;BME280;396;52.558;13.188;2023-06-22T05:50:28;101536.91;;;22.32;91.52
829;BME280;396;52.558;13.188;2023-06-22T05:52:54;101535.31;;;22.31;91.22
829;BME280;396;52.558;13.188;2023-06-22T05:55:21;101536.44;;;22.30;90.43
829;BME280;396;52.558;13.188;2023-06-22T05:57:47;101530.50;;;22.28;88.96
829;BME280;396;52.558;13.188;2023-06-22T06:00:15;101536.81;;;22.29;87.32
829;BME280;396;52.558;13.188;2023-06-22T06:02:43;101537.69;;;22.33;86.64
829;BME280;396;52.558;13.188;2023-06-22T06:05:10;101535.38;;;22.35;85.63
829;BME280;396;52.558;13.188;2023-06-22T06:07:39;101541.44;;;22.40;85.19
829;BME280;396;52.558;13.188;2023-06-22T06:10:06;101537.22;;;22.47;84.94
829;BME280;396;52.558;13.188;2023-06-22T06:12:33;101534.19;;;22.52;84.94
829;BME280;396;52.558;13.188;2023-06-22T06:15:00;101525.19;;;22.55;83.83
829;BME280;396;52.558;13.188;2023-06-22T06:17:27;101524.81;;;22.56;83.68
829;BME280;396;52.558;13.188;2023-06-22T06:19:55;101519.38;;;22.60;82.36
829;BME280;396;52.558;13.188;2023-06-22T06:22:21;101524.91;;;22.60;82.21
829;BME280;396;52.558;13.188;2023-06-22T06:24:49;101523.47;;;22.66;81.05
829;BME280;396;52.558;13.188;2023-06-22T06:27:15;101533.00;;;22.69;80.68
829;BME280;396;52.558;13.188;2023-06-22T06:29:44;101535.03;;;22.72;79.61
829;BME280;396;52.558;13.188;2023-06-22T06:32:13;101538.75;;;22.79;77.34
829;BME280;396;52.558;13.188;2023-06-22T06:34:40;101553.16;;;22.88;76.77
829;BME280;396;52.558;13.188;2023-06-22T06:37:08;101540.25;;;22.92;77.09
829;BME280;396;52.558;13.188;2023-06-22T06:39:35;101545.22;;;23.03;76.04
829;BME280;396;52.558;13.188;2023-06-22T06:42:01;101551.34;;;23.12;75.34
829;BME280;396;52.558;13.188;2023-06-22T06:44:28;101546.41;;;23.21;75.09
829;BME280;396;52.558;13.188;2023-06-22T06:46:54;101547.69;;;23.27;74.31
829;BME280;396;52.558;13.188;2023-06-22T06:49:21;101543.91;;;23.35;74.43
829;BME280;396;52.558;13.188;2023-06-22T06:51:47;101541.72;;;23.45;73.54
829;BME280;396;52.558;13.188;2023-06-22T06:54:15;101536.34;;;23.52;73.25
829;BME280;396;52.558;13.188;2023-06-22T06:56:43;101530.19;;;23.62;74.28
829;BME280;396;52.558;13.188;2023-06-22T06:59:13;101535.91;;;23.69;72.56
829;BME280;396;52.558;13.188;2023-06-22T07:01:40;101533.63;;;23.75;72.94
829;BME280;396;52.558;13.188;2023-06-22T07:04:07;101528.25;;;23.85;72.53
829;BME280;396;52.558;13.188;2023-06-22T07:06:33;101522.88;;;23.92;71.89
829;BME280;396;52.558;13.188;2023-06-22T07:09:00;101523.09;;;24.07;72.33
829;BME280;396;52.558;13.188;2023-06-22T07:11:29;101520.06;;;24.15;71.79
829;BME280;396;52.558;13.188;2023-06-22T07:13:55;101509.06;;;24.19;70.19
829;BME280;396;52.558;13.188;2023-06-22T07:16:22;101509.88;;;24.20;69.21
829;BME280;396;52.558;13.188;2023-06-22T07:18:50;101505.91;;;24.21;69.64
829;BME280;396;52.558;13.188;2023-06-22T07:21:17;101503.94;;;24.21;67.69
829;BME280;396;52.558;13.188;2023-06-22T07:23:44;101508.75;;;24.24;67.43
829;BME280;396;52.558;13.188;2023-06-22T07:26:10;101502.47;;;24.27;67.96
829;BME280;396;52.558;13.188;2023-06-22T07:28:39;101499.38;;;24.32;68.58
829;BME280;396;52.558;13.188;2023-06-22T07:31:06;101505.41;;;24.38;68.15
829;BME280;396;52.558;13.188;2023-06-22T07:33:33;101506.34;;;24.46;69.35
829;BME280;396;52.558;13.188;2023-06-22T07:35:59;101506.06;;;24.54;67.60
829;BME280;396;52.558;13.188;2023-06-22T07:38:26;101507.44;;;24.67;65.98
829;BME280;396;52.558;13.188;2023-06-22T07:40:53;101504.38;;;24.76;66.14
829;BME280;396;52.558;13.188;2023-06-22T07:43:19;101509.94;;;24.76;65.05
829;BME280;396;52.558;13.188;2023-06-22T07:45:49;101507.63;;;24.82;64.88
829;BME280;396;52.558;13.188;2023-06-22T07:48:20;101515.72;;;24.94;65.56
829;BME280;396;52.558;13.188;2023-06-22T07:50:46;101507.84;;;25.00;64.65
829;BME280;396;52.558;13.188;2023-06-22T07:53:14;101504.06;;;25.11;63.12
829;BME280;396;52.558;13.188;2023-06-22T07:55:41;101505.78;;;25.23;63.20
829;BME280;396;52.558;13.188;2023-06-22T07:58:07;101508.63;;;25.30;61.46
829;BME280;396;52.558;13.188;2023-06-22T08:00:34;101502.84;;;25.42;61.36
829;BME280;396;52.558;13.188;2023-06-22T08:03:02;101499.25;;;25.42;59.72
829;BME280;396;52.558;13.188;2023-06-22T08:05:30;101504.34;;;25.36;57.87
829;BME280;396;52.558;13.188;2023-06-22T08:07:57;101498.03;;;25.39;59.02
829;BME280;396;52.558;13.188;2023-06-22T08:10:23;101500.91;;;25.47;57.68
829;BME280;396;52.558;13.188;2023-06-22T08:12:50;101501.00;;;25.57;57.85
829;BME280;396;52.558;13.188;2023-06-22T08:15:18;101496.31;;;25.65;57.88
829;BME280;396;52.558;13.188;2023-06-22T08:17:45;101496.78;;;25.74;59.93
829;BME280;396;52.558;13.188;2023-06-22T08:20:13;101496.66;;;25.60;57.48
829;BME280;396;52.558;13.188;2023-06-22T08:22:40;101500.28;;;25.67;58.24
829;BME280;396;52.558;13.188;2023-06-22T08:25:08;101501.47;;;25.66;57.95
829;BME280;396;52.558;13.188;2023-06-22T08:27:35;101495.97;;;25.70;56.88
829;BME280;396;52.558;13.188;2023-06-22T08:30:03;101502.34;;;25.74;57.08
829;BME280;396;52.558;13.188;2023-06-22T08:32:30;101502.41;;;25.78;56.28
829;BME280;396;52.558;13.188;2023-06-22T08:34:58;101504.44;;;25.84;55.78
829;BME280;396;52.558;13.188;2023-06-22T08:37:26;101495.00;;;25.92;56.31
829;BME280;396;52.558;13.188;2023-06-22T08:39:56;101498.25;;;26.02;55.18
829;BME280;396;52.558;13.188;2023-06-22T08:42:23;101487.59;;;26.11;56.77
829;BME280;396;52.558;13.188;2023-06-22T08:44:51;101487.66;;;26.18;55.58
829;BME280;396;52.558;13.188;2023-06-22T08:49:44;101499.28;;;26.38;55.47
829;BME280;396;52.558;13.188;2023-06-22T08:52:11;101493.06;;;26.48;53.96
829;BME280;396;52.558;13.188;2023-06-22T08:54:39;101504.66;;;26.64;54.26
829;BME280;396;52.558;13.188;2023-06-22T08:57:06;101493.59;;;26.75;52.70
829;BME280;396;52.558;13.188;2023-06-22T08:59:32;101499.63;;;26.88;52.84
829;BME280;396;52.558;13.188;2023-06-22T09:01:59;101497.63;;;26.96;51.54
829;BME280;396;52.558;13.188;2023-06-22T09:04:25;101494.97;;;27.10;52.36
829;BME280;396;52.558;13.188;2023-06-22T09:06:52;101500.91;;;27.12;50.78
829;BME280;396;52.558;13.188;2023-06-22T09:09:21;101496.97;;;27.20;50.04
829;BME280;396;52.558;13.188;2023-06-22T09:11:49;101500.56;;;27.28;51.30
829;BME280;396;52.558;13.188;2023-06-22T09:14:16;101499.41;;;27.32;51.73
829;BME280;396;52.558;13.188;2023-06-22T09:16:43;101490.66;;;27.37;52.44
829;BME280;396;52.558;13.188;2023-06-22T09:19:10;101492.22;;;27.31;51.78
829;BME280;396;52.558;13.188;2023-06-22T09:21:37;101490.66;;;27.37;53.21
829;BME280;396;52.558;13.188;2023-06-22T09:24:04;101493.44;;;27.45;53.08
829;BME280;396;52.558;13.188;2023-06-22T09:26:31;101484.31;;;27.62;53.13
829;BME280;396;52.558;13.188;2023-06-22T09:28:59;101484.72;;;27.71;49.64
829;BME280;396;52.558;13.188;2023-06-22T09:31:25;101475.97;;;27.62;45.67
829;BME280;396;52.558;13.188;2023-06-22T09:33:52;101468.41;;;27.70;48.20
829;BME280;396;52.558;13.188;2023-06-22T09:36:19;101466.47;;;27.84;48.36
829;BME280;396;52.558;13.188;2023-06-22T09:38:48;101464.06;;;28.04;47.54
829;BME280;396;52.558;13.188;2023-06-22T09:41:21;101462.88;;;28.16;47.33
829;BME280;396;52.558;13.188;2023-06-22T09:43:47;101469.22;;;28.20;46.57
829;BME280;396;52.558;13.188;2023-06-22T09:46:16;101470.81;;;28.21;47.27
829;BME280;396;52.558;13.188;2023-06-22T09:48:43;101475.22;;;28.08;46.28
829;BME280;396;52.558;13.188;2023-06-22T09:51:09;101467.66;;;28.12;47.32
829;BME280;396;52.558;13.188;2023-06-22T09:53:36;101467.63;;;28.15;49.48
829;BME280;396;52.558;13.188;2023-06-22T09:56:03;101481.97;;;28.43;50.00
829;BME280;396;52.558;13.188;2023-06-22T09:58:31;101475.91;;;28.62;46.51
829;BME280;396;52.558;13.188;2023-06-22T10:00:58;101473.84;;;28.77;47.23
829;BME280;396;52.558;13.188;2023-06-22T10:03:26;101471.50;;;28.72;46.97
829;BME280;396;52.558;13.188;2023-06-22T10:05:52;101469.91;;;28.74;46.61
829;BME280;396;52.558;13.188;2023-06-22T10:08:19;101469.84;;;28.85;47.57
829;BME280;396;52.558;13.188;2023-06-22T10:10:46;101470.63;;;28.92;47.87
829;BME280;396;52.558;13.188;2023-06-22T10:13:12;101478.97;;;28.92;46.60
829;BME280;396;52.558;13.188;2023-06-22T10:15:40;101477.03;;;28.82;46.98
829;BME280;396;52.558;13.188;2023-06-22T10:18:07;101474.66;;;28.77;46.65
829;BME280;396;52.558;13.188;2023-06-22T10:20:35;101471.50;;;28.68;47.29
829;BME280;396;52.558;13.188;2023-06-22T10:23:01;101469.06;;;28.77;46.72
829;BME280;396;52.558;13.188;2023-06-22T10:25:28;101465.97;;;28.64;45.71
829;BME280;396;52.558;13.188;2023-06-22T10:27:54;101460.41;;;28.61;48.54
829;BME280;396;52.558;13.188;2023-06-22T10:30:21;101460.41;;;28.57;47.83
829;BME280;396;52.558;13.188;2023-06-22T10:32:48;101450.03;;;28.58;48.91
829;BME280;396;52.558;13.188;2023-06-22T10:35:15;101449.25;;;28.57;49.86
829;BME280;396;52.558;13.188;2023-06-22T10:37:44;101445.25;;;28.62;47.23
829;BME280;396;52.558;13.188;2023-06-22T10:40:12;101450.84;;;28.55;47.81
829;BME280;396;52.558;13.188;2023-06-22T10:42:39;101447.22;;;28.65;48.98
829;BME280;396;52.558;13.188;2023-06-22T10:45:07;101439.22;;;28.74;48.38
829;BME280;396;52.558;13.188;2023-06-22T10:47:34;101441.94;;;28.88;46.46
829;BME280;396;52.558;13.188;2023-06-22T10:50:01;101447.53;;;28.88;45.60
829;BME280;396;52.558;13.188;2023-06-22T10:52:27;101427.94;;;29.03;45.38
829;BME280;396;52.558;13.188;2023-06-22T10:54:55;101421.09;;;29.14;47.10
829;BME280;396;52.558;13.188;2023-06-22T10:57:22;101425.00;;;29.24;47.55
829;BME280;396;52.558;13.188;2023-06-22T10:59:49;101414.50;;;29.42;45.73
829;BME280;396;52.558;13.188;2023-06-22T11:02:16;101416.84;;;29.48;45.45
829;BME280;396;52.558;13.188;2023-06-22T11:04:42;101424.78;;;29.56;45.36
829;BME280;396;52.558;13.188;2023-06-22T11:07:10;101425.56;;;29.60;45.58
829;BME280;396;52.558;13.188;2023-06-22T11:09:36;101430.28;;;29.71;44.97
829;BME280;396;52.558;13.188;2023-06-22T11:12:09;101424.00;;;30.01;43.74
829;BME280;396;52.558;13.188;2023-06-22T11:14:35;101419.66;;;30.37;42.65
829;BME280;396;52.558;13.188;2023-06-22T11:17:02;101413.06;;;30.55;45.41
829;BME280;396;52.558;13.188;2023-06-22T11:19:29;101408.78;;;30.43;42.63
829;BME280;396;52.558;13.188;2023-06-22T11:21:55;101403.06;;;30.54;45.91
829;BME280;396;52.558;13.188;2023-06-22T11:24:22;101398.59;;;30.60;44.26
829;BME280;396;52.558;13.188;2023-06-22T11:26:48;101398.13;;;30.65;43.68
829;BME280;396;52.558;13.188;2023-06-22T11:29:16;101410.94;;;30.93;43.68
829;BME280;396;52.558;13.188;2023-06-22T11:31:43;101411.44;;;31.15;43.62
829;BME280;396;52.558;13.188;2023-06-22T11:34:09;101405.25;;;31.00;42.97
829;BME280;396;52.558;13.188;2023-06-22T11:36:36;101409.16;;;31.33;42.96
829;BME280;396;52.558;13.188;2023-06-22T11:39:03;101402.97;;;31.69;41.16
829;BME280;396;52.558;13.188;2023-06-22T11:41:30;101406.63;;;32.33;42.28
829;BME280;396;52.558;13.188;2023-06-22T11:43:56;101412.66;;;32.91;43.32
829;BME280;396;52.558;13.188;2023-06-22T11:46:24;101424.88;;;33.33;40.79
829;BME280;396;52.558;13.188;2023-06-22T11:48:51;101424.53;;;33.31;41.22
829;BME280;396;52.558;13.188;2023-06-22T11:51:18;101436.19;;;33.13;39.93
829;BME280;396;52.558;13.188;2023-06-22T11:53:44;101418.44;;;33.00;39.31
829;BME280;396;52.558;13.188;2023-06-22T11:56:11;101421.09;;;33.07;39.60
829;BME280;396;52.558;13.188;2023-06-22T11:58:37;101416.63;;;33.10;38.38
829;BME280;396;52.558;13.188;2023-06-22T12:01:04;101404.78;;;32.82;40.11
829;BME280;396;52.558;13.188;2023-06-22T12:03:32;101414.19;;;32.56;39.40
829;BME280;396;52.558;13.188;2023-06-22T12:05:59;101405.75;;;32.36;39.95
829;BME280;396;52.558;13.188;2023-06-22T12:08:26;101394.97;;;32.14;41.54
829;BME280;396;52.558;13.188;2023-06-22T12:10:53;101391.94;;;31.82;39.37
829;BME280;396;52.558;13.188;2023-06-22T12:13:20;101386.53;;;31.95;41.18
829;BME280;396;52.558;13.188;2023-06-22T12:15:46;101380.66;;;32.49;41.79
829;BME280;396;52.558;13.188;2023-06-22T12:18:13;101391.53;;;33.03;42.65
829;BME280;396;52.558;13.188;2023-06-22T12:20:41;101377.69;;;33.45;39.08
829;BME280;396;52.558;13.188;2023-06-22T12:23:08;101379.00;;;33.56;37.89
829;BME280;396;52.558;13.188;2023-06-22T12:25:34;101372.59;;;33.56;37.34
829;BME280;396;52.558;13.188;2023-06-22T12:28:01;101369.16;;;33.94;38.89
829;BME280;396;52.558;13.188;2023-06-22T12:30:29;101370.66;;;34.27;36.43
829;BME280;396;52.558;13.188;2023-06-22T12:32:56;101363.03;;;34.41;36.72
829;BME280;396;52.558;13.188;2023-06-22T12:35:23;101371.13;;;33.80;37.64
829;BME280;396;52.558;13.188;2023-06-22T12:37:51;101369.50;;;33.50;39.42
829;BME280;396;52.558;13.188;2023-06-22T12:40:18;101360.72;;;33.32;37.79
829;BME280;396;52.558;13.188;2023-06-22T12:42:45;101359.81;;;32.86;38.39
829;BME280;396;52.558;13.188;2023-06-22T12:45:12;101351.81;;;32.84;39.58
829;BME280;396;52.558;13.188;2023-06-22T12:47:38;101343.97;;;32.76;38.18
829;BME280;396;52.558;13.188;2023-06-22T12:50:06;101350.69;;;32.82;40.83
829;BME280;396;52.558;13.188;2023-06-22T12:52:32;101337.84;;;32.64;41.43
829;BME280;396;52.558;13.188;2023-06-22T12:55:01;101333.97;;;32.58;40.37
829;BME280;396;52.558;13.188;2023-06-22T12:57:27;101331.28;;;32.87;39.68
829;BME280;396;52.558;13.188;2023-06-22T12:59:54;101332.88;;;33.37;38.99
829;BME280;396;52.558;13.188;2023-06-22T13:02:21;101331.28;;;33.69;39.55
829;BME280;396;52.558;13.188;2023-06-22T13:04:47;101329.22;;;34.15;38.07
829;BME280;396;52.558;13.188;2023-06-22T13:07:14;101322.53;;;34.51;38.48
829;BME280;396;52.558;13.188;2023-06-22T13:09:41;101327.25;;;35.05;36.80
829;BME280;396;52.558;13.188;2023-06-22T13:12:09;101326.97;;;35.37;35.94
829;BME280;396;52.558;13.188;2023-06-22T13:14:36;101319.94;;;35.55;34.09
829;BME280;396;52.558;13.188;2023-06-22T13:17:03;101323.84;;;35.70;34.24
829;BME280;396;52.558;13.188;2023-06-22T13:19:30;101318.44;;;35.63;34.04
829;BME280;396;52.558;13.188;2023-06-22T13:21:58;101321.78;;;35.49;34.97